EmailTwitter


Surface observations / France / LFBO (07630)

Regions: Quebec | Canada | USA | Europe | France | UK | Elsewhere
Station
Display
Info & Location for LFBO (07630) | Help decoding METAR

Weather Conditions observed on 2018/11/14 at 15:00 UTC at TOULOUSE/BLAGNAC, FR (LFBO)

Sky conditions: few clouds.

Temperature: 19.0 Celsius.

Dewpoint: 13.0 Celsius.

Relative Humidity: 68%

Winds: Southeast at 31 km/h or 17 knots.

Mean Sea level Pressure: 102.10 kilopascals.

Horizontal visibility: 6.21 statute miles or 9.94 kilometers.

Coded METAR:

LFBO 141500Z AUTO 13017KT 100V160 9999 FEW021 19/13 Q1021 BECMG 14015G25KT=